PAEI METAR and TAF weather

Enter ICAO airport designator
Station Type Date Time Source
PAEI METAR 2019/02/22 22:20 UTC NOAA

PAEI 222220Z 04003KT 7SM -SN FEW012 OVC026 M15/M18 A3042 RMK SB20 SLP322 $


Station Type Date Time Source
PAEI Decoded METAR 2019/02/22 22:20 UTC NOAA

Fairbanks, Eielson Air Force Base, AK, United States (PAEI) 64-39N 147-06W 167M
Feb 22, 2019 - 05:20 PM EST / 2019.02.22 2220 UTC
Wind: from the NE (040 degrees) at 3 MPH (3 KT):0
Visibility: 7 mile(s):0
Sky conditions: overcast
Weather: light snow
Temperature: 5 F (-15 C)
Dew Point: 0 F (-18 C)
Relative Humidity: 77%
Pressure (altimeter): 30.42 in. Hg (1030 hPa)
ob: PAEI 222220Z 04003KT 7SM -SN FEW012 OVC026 M15/M18 A3042 RMK SB20 SLP322
cycle: 22

Station Type Date Time Source
PAEI TAF 2019/02/22 21:57 UTC NOAA

TAF TAF
AMD PAEI 222148Z 2221/2402 VRB06KT 8000 -SHSN OVC020 600202 QNH3037INS
TEMPO 2221/2304 BKN015 OVC020 600153
BECMG 2303/2304 VRB06KT 9999 NSW SCT020 QNH3037INS
BECMG 2309/2310 VRB06KT 9999 SCT080 BKN110 QNH3038INS TXM11/2301Z TNM27/2308Z


Example: see airport list